Time;durP1;ratioP1;P1;durP2;ratioP2;P2;SDS_P1;SDS_P2;PMS_P1;PMS_P2;Temp;Humidity;BMP_temperature;BMP_pressure;BME280_temperature;BME280_humidity;BME280_pressure;Samples;Min_cycle;Max_cycle;Signal;HPM_P1;HPM_P2
2021/07/02 00:00:21;;;;;;;1.33;1.23;;;18.90;69.50;;;;;;5037358;28;20033;-80
2021/07/02 00:02:46;;;;;;;1.40;1.30;;;18.90;69.30;;;;;;5052634;28;20037;-80
2021/07/02 00:05:13;;;;;;;1.40;1.30;;;18.90;69.20;;;;;;5057334;28;20029;-80
2021/07/02 00:07:39;;;;;;;1.40;1.27;;;18.90;69.50;;;;;;5057411;28;20096;-80
2021/07/02 00:10:06;;;;;;;1.63;1.52;;;18.90;69.30;;;;;;5040086;28;20095;-81
2021/07/02 00:12:32;;;;;;;1.38;1.27;;;18.90;69.40;;;;;;5037201;28;20108;-80
2021/07/02 00:14:58;;;;;;;1.40;1.30;;;18.90;69.40;;;;;;5035942;28;20084;-80
2021/07/02 00:17:24;;;;;;;1.60;1.50;;;18.90;69.60;;;;;;5037050;28;20479;-80
2021/07/02 00:19:50;;;;;;;1.58;1.48;;;18.90;69.60;;;;;;5037149;28;20037;-80
2021/07/02 00:22:15;;;;;;;1.50;1.40;;;18.80;69.70;;;;;;5036862;28;20068;-81
2021/07/02 00:24:41;;;;;;;1.40;1.30;;;18.80;69.90;;;;;;5036823;28;20022;-81
2021/07/02 00:27:07;;;;;;;1.50;1.40;;;18.80;69.20;;;;;;5056564;28;20801;-80
2021/07/02 00:29:33;;;;;;;1.75;1.40;;;18.90;69.30;;;;;;5056790;28;20021;-81
2021/07/02 00:31:58;;;;;;;1.17;1.08;;;18.80;69.90;;;;;;5039580;28;20025;-81
2021/07/02 00:34:24;;;;;;;1.30;1.20;;;18.80;69.40;;;;;;5035747;28;20041;-81
2021/07/02 00:36:50;;;;;;;1.60;1.50;;;18.80;69.50;;;;;;5036588;28;20029;-80
2021/07/02 00:39:15;;;;;;;1.50;1.40;;;18.90;69.30;;;;;;5036841;28;20025;-81
2021/07/02 00:41:41;;;;;;;1.50;1.40;;;18.80;69.40;;;;;;5036472;28;20029;-80
2021/07/02 00:44:07;;;;;;;1.55;1.45;;;18.80;69.60;;;;;;5036510;28;20036;-81
2021/07/02 00:46:33;;;;;;;1.63;1.52;;;18.80;69.50;;;;;;5036606;28;20029;-80
2021/07/02 00:48:59;;;;;;;1.45;1.35;;;18.80;69.60;;;;;;5035091;28;20017;-81
2021/07/02 00:51:32;;;;;;;1.50;1.40;;;18.80;69.50;;;;;;5036418;28;20034;-81
2021/07/02 00:53:58;;;;;;;1.60;1.50;;;18.80;69.60;;;;;;5069424;28;20028;-81
2021/07/02 00:56:25;;;;;;;1.50;1.40;;;18.80;70.00;;;;;;5068100;28;20048;-81
2021/07/02 00:58:50;;;;;;;1.48;1.38;;;18.80;69.80;;;;;;5037327;28;20132;-80
2021/07/02 01:01:17;;;;;;;1.50;1.40;;;18.80;69.90;;;;;;5045525;28;20130;-81
2021/07/02 01:03:44;;;;;;;1.50;1.40;;;18.80;70.00;;;;;;5054788;28;20631;-80
2021/07/02 01:06:14;;;;;;;1.60;1.50;;;18.70;70.20;;;;;;5042697;28;20033;-80
2021/07/02 01:08:44;;;;;;;1.52;1.42;;;18.80;70.00;;;;;;5035706;28;20045;-80
2021/07/02 01:11:10;;;;;;;1.65;1.55;;;18.80;69.90;;;;;;5034727;28;20101;-80
2021/07/02 01:13:36;;;;;;;1.40;1.30;;;18.80;69.80;;;;;;5036185;28;20025;-81
2021/07/02 01:16:02;;;;;;;1.42;1.33;;;18.80;70.10;;;;;;5043542;28;20071;-81
2021/07/02 01:18:27;;;;;;;1.27;1.17;;;18.70;69.90;;;;;;5036042;28;20030;-80
2021/07/02 01:20:55;;;;;;;1.40;1.30;;;18.70;70.00;;;;;;5035961;28;20060;-81
2021/07/02 01:23:21;;;;;;;2.13;1.30;;;18.80;69.90;;;;;;5051328;28;20045;-81
2021/07/02 01:25:48;;;;;;;1.35;1.25;;;18.70;70.40;;;;;;5050482;28;20025;-81
2021/07/02 01:28:15;;;;;;;1.50;1.40;;;18.60;70.40;;;;;;5036890;28;20472;-81
2021/07/02 01:30:41;;;;;;;1.58;1.30;;;18.60;70.70;;;;;;5035619;28;20022;-80
2021/07/02 01:33:12;;;;;;;1.30;1.20;;;18.50;71.20;;;;;;5035902;28;20033;-81
2021/07/02 01:35:37;;;;;;;1.45;1.35;;;18.50;70.70;;;;;;5035901;28;20040;-81
2021/07/02 01:38:04;;;;;;;1.50;1.40;;;18.40;71.30;;;;;;5051309;28;20025;-81
2021/07/02 01:40:31;;;;;;;1.40;1.30;;;18.30;71.30;;;;;;5035530;28;20087;-81
2021/07/02 01:43:01;;;;;;;1.88;1.52;;;18.30;71.20;;;;;;5035602;28;20017;-81
2021/07/02 01:45:27;;;;;;;1.38;1.27;;;18.40;71.20;;;;;;5035585;28;20430;-81
2021/07/02 01:47:53;;;;;;;1.40;1.30;;;18.30;71.40;;;;;;5035349;28;20061;-81
2021/07/02 01:50:21;;;;;;;1.60;1.50;;;18.30;71.40;;;;;;5035687;28;20380;-81
2021/07/02 01:52:47;;;;;;;1.70;1.60;;;18.40;71.00;;;;;;5044578;28;20437;-81
2021/07/02 01:55:13;;;;;;;1.70;1.60;;;18.40;71.30;;;;;;5075483;28;20040;-81
2021/07/02 01:57:39;;;;;;;1.42;1.33;;;18.40;71.20;;;;;;5075351;28;20028;-81
2021/07/02 02:00:06;;;;;;;1.65;1.30;;;18.40;71.60;;;;;;5069018;28;20032;-81
2021/07/02 02:02:32;;;;;;;1.45;1.35;;;18.40;71.70;;;;;;5055116;28;20045;-81
2021/07/02 02:04:58;;;;;;;1.60;1.50;;;18.30;72.00;;;;;;5055519;28;20033;-80
2021/07/02 02:07:24;;;;;;;1.50;1.40;;;18.30;71.90;;;;;;5051724;28;20029;-80
2021/07/02 02:09:49;;;;;;;1.40;1.30;;;18.30;71.80;;;;;;5035355;28;20053;-80
2021/07/02 02:12:15;;;;;;;1.70;1.38;;;18.30;71.70;;;;;;5035364;28;20036;-81
2021/07/02 02:14:41;;;;;;;1.48;1.38;;;18.30;71.80;;;;;;5033791;28;20116;-81
2021/07/02 02:17:07;;;;;;;1.50;1.40;;;18.30;71.80;;;;;;5035306;28;20029;-80
2021/07/02 02:19:32;;;;;;;1.35;1.25;;;18.20;72.00;;;;;;5037925;28;20116;-80
2021/07/02 02:21:58;;;;;;;1.50;1.40;;;18.10;72.80;;;;;;5058959;28;20491;-80
2021/07/02 02:24:24;;;;;;;1.55;1.45;;;18.10;72.50;;;;;;5059324;28;20049;-80
2021/07/02 02:26:50;;;;;;;1.40;1.30;;;18.10;72.40;;;;;;5056527;28;20025;-81
2021/07/02 02:29:15;;;;;;;1.48;1.38;;;18.20;72.40;;;;;;5038969;28;20025;-80
2021/07/02 02:31:41;;;;;;;1.52;1.30;;;18.20;71.80;;;;;;5038947;28;20018;-80
2021/07/02 02:34:14;;;;;;;1.50;1.40;;;18.20;71.70;;;;;;5058504;28;20494;-81
2021/07/02 02:36:40;;;;;;;1.60;1.40;;;18.20;72.00;;;;;;5058995;28;20086;-81
2021/07/02 02:39:06;;;;;;;1.40;1.30;;;18.10;72.30;;;;;;5057008;28;20033;-81
2021/07/02 02:41:33;;;;;;;2.10;1.40;;;18.00;72.60;;;;;;5038972;28;20128;-80
2021/07/02 02:43:58;;;;;;;1.40;1.30;;;18.00;72.50;;;;;;5037692;28;20037;-80
2021/07/02 02:46:24;;;;;;;1.50;1.40;;;18.10;72.50;;;;;;5038863;28;20056;-80
2021/07/02 02:48:50;;;;;;;1.40;1.30;;;18.10;72.30;;;;;;5052204;28;20047;-80
2021/07/02 02:51:15;;;;;;;1.40;1.20;;;18.10;72.40;;;;;;5058799;28;20051;-80
2021/07/02 02:53:41;;;;;;;1.42;1.33;;;18.00;72.50;;;;;;5070787;28;20422;-80
2021/07/02 02:56:07;;;;;;;1.50;1.40;;;18.00;72.40;;;;;;5078700;28;20035;-81
2021/07/02 02:58:32;;;;;;;1.60;1.50;;;18.10;72.20;;;;;;5062509;28;20021;-81
2021/07/02 03:00:58;;;;;;;1.35;1.25;;;18.00;72.40;;;;;;5055197;28;20029;-81
2021/07/02 03:03:24;;;;;;;1.40;1.30;;;18.00;72.50;;;;;;5038492;28;20042;-80
2021/07/02 03:05:49;;;;;;;1.60;1.10;;;18.00;72.20;;;;;;5038709;28;20059;-81
2021/07/02 03:08:16;;;;;;;1.30;1.20;;;17.90;72.10;;;;;;5038286;28;20487;-80
2021/07/02 03:10:41;;;;;;;1.30;1.20;;;18.00;72.10;;;;;;5036847;28;20569;-80
2021/07/02 03:13:07;;;;;;;1.15;1.05;;;17.90;72.10;;;;;;5038451;28;20026;-80
2021/07/02 03:15:33;;;;;;;1.25;1.15;;;17.90;72.30;;;;;;5049050;28;20034;-81
2021/07/02 03:17:59;;;;;;;1.30;1.20;;;17.80;72.20;;;;;;5038245;28;20026;-80
2021/07/02 03:20:25;;;;;;;1.40;1.30;;;17.80;72.10;;;;;;5038330;28;20064;-81
2021/07/02 03:22:51;;;;;;;1.50;1.40;;;17.80;72.10;;;;;;5038167;28;20021;-81
2021/07/02 03:25:16;;;;;;;1.33;1.23;;;17.80;72.10;;;;;;5038045;28;20059;-81
2021/07/02 03:27:42;;;;;;;1.30;1.20;;;17.90;71.80;;;;;;5038322;28;20328;-80
2021/07/02 03:30:10;;;;;;;1.70;1.50;;;17.80;72.30;;;;;;5037248;28;20022;-81
2021/07/02 03:32:36;;;;;;;1.40;1.30;;;17.80;72.50;;;;;;5038104;28;20021;-80
2021/07/02 03:35:04;;;;;;;1.42;1.33;;;17.70;72.50;;;;;;5038056;28;20463;-80
2021/07/02 03:37:29;;;;;;;1.33;1.15;;;17.70;72.40;;;;;;5037925;28;20025;-80
2021/07/02 03:39:55;;;;;;;1.30;1.20;;;17.70;72.60;;;;;;5037985;28;20112;-80
2021/07/02 03:42:21;;;;;;;1.30;1.20;;;17.70;72.90;;;;;;5037640;28;20025;-80
2021/07/02 03:44:46;;;;;;;1.40;1.30;;;17.70;72.70;;;;;;5036123;28;20120;-80
2021/07/02 03:47:12;;;;;;;1.60;1.50;;;17.70;72.90;;;;;;5037885;28;20133;-80
2021/07/02 03:49:38;;;;;;;1.30;1.20;;;17.70;72.60;;;;;;5037653;28;20032;-80
2021/07/02 03:52:04;;;;;;;1.33;1.23;;;17.70;72.70;;;;;;5037782;28;20033;-80
2021/07/02 03:54:30;;;;;;;1.40;1.13;;;17.70;73.00;;;;;;5072139;28;20028;-80
2021/07/02 03:57:11;;;;;;;1.65;1.27;;;17.70;72.50;;;;;;5037630;28;20116;-80
2021/07/02 03:59:50;;;;;;;1.60;1.50;;;17.70;72.10;;;;;;5037580;28;20819;-80
2021/07/02 04:02:16;;;;;;;1.23;1.13;;;17.60;72.50;;;;;;5037242;28;20046;-80
2021/07/02 04:04:52;;;;;;;1.38;1.27;;;17.60;72.70;;;;;;5037345;28;20116;-81
2021/07/02 04:07:17;;;;;;;1.30;1.20;;;17.60;72.90;;;;;;5037514;28;20018;-80
2021/07/02 04:09:43;;;;;;;1.60;1.50;;;17.60;72.80;;;;;;5037153;28;20087;-80
2021/07/02 04:12:10;;;;;;;1.50;1.40;;;17.60;72.60;;;;;;5055795;28;20041;-80
2021/07/02 04:14:36;;;;;;;1.50;1.40;;;17.60;72.90;;;;;;5055185;28;20107;-80
2021/07/02 04:17:02;;;;;;;1.40;1.30;;;17.60;72.80;;;;;;5037246;28;20052;-80
2021/07/02 04:19:28;;;;;;;1.40;1.30;;;17.70;72.50;;;;;;5037270;28;20033;-80
2021/07/02 04:21:53;;;;;;;1.42;1.20;;;17.70;72.30;;;;;;5037056;28;20029;-80
2021/07/02 04:24:19;;;;;;;1.50;1.30;;;17.70;72.50;;;;;;5037208;28;20029;-80
2021/07/02 04:26:45;;;;;;;1.50;1.40;;;17.60;72.90;;;;;;5036984;28;20253;-80
2021/07/02 04:29:12;;;;;;;1.30;1.20;;;17.60;72.60;;;;;;5036925;28;20029;-80
2021/07/02 04:31:38;;;;;;;1.40;1.30;;;17.70;72.60;;;;;;5048710;28;20021;-80
2021/07/02 04:34:03;;;;;;;1.52;1.42;;;17.60;72.70;;;;;;5056991;28;20033;-80
2021/07/02 04:36:29;;;;;;;1.23;1.13;;;17.60;72.60;;;;;;5037072;28;20040;-80
2021/07/02 04:38:56;;;;;;;1.50;1.40;;;17.60;72.80;;;;;;5035600;28;20124;-80
2021/07/02 04:41:22;;;;;;;1.35;1.25;;;17.60;72.70;;;;;;5040797;28;20028;-80
2021/07/02 04:43:48;;;;;;;1.30;1.10;;;17.70;72.60;;;;;;5052256;28;20027;-80
2021/07/02 04:46:15;;;;;;;1.40;1.30;;;17.60;73.20;;;;;;5056601;28;20542;-81
2021/07/02 04:48:41;;;;;;;1.30;1.20;;;17.60;73.10;;;;;;5055510;28;20025;-84
2021/07/02 04:51:07;;;;;;;1.50;1.40;;;17.70;73.00;;;;;;5051120;28;20349;-84
2021/07/02 04:53:33;;;;;;;1.30;1.20;;;17.70;72.80;;;;;;5058624;28;20028;-86
2021/07/02 04:55:59;;;;;;;1.48;1.38;;;17.70;72.50;;;;;;5057514;28;20364;-85
2021/07/02 04:58:24;;;;;;;1.40;1.30;;;17.70;72.20;;;;;;5055249;28;20521;-86
2021/07/02 05:00:50;;;;;;;1.33;1.23;;;17.70;72.50;;;;;;5055321;28;20055;-86
2021/07/02 05:03:16;;;;;;;1.48;1.38;;;17.80;72.70;;;;;;5048223;28;20500;-86
2021/07/02 05:05:42;;;;;;;1.52;1.33;;;17.70;72.70;;;;;;5037092;28;20021;-92
2021/07/02 05:08:09;;;;;;;1.70;1.42;;;17.70;72.70;;;;;;5037097;28;20067;-91
2021/07/02 05:10:36;;;;;;;1.30;1.20;;;17.70;72.70;;;;;;5046203;28;20075;-91
2021/07/02 05:13:02;;;;;;;1.40;1.30;;;17.70;72.70;;;;;;5053035;28;20057;-85
2021/07/02 05:15:29;;;;;;;1.40;1.30;;;17.80;72.50;;;;;;5051830;28;20037;-89
2021/07/02 05:17:54;;;;;;;1.40;1.20;;;17.80;72.30;;;;;;5036871;28;20021;-90
2021/07/02 05:20:20;;;;;;;1.50;1.40;;;17.70;72.60;;;;;;5042486;28;20032;-89
2021/07/02 05:22:46;;;;;;;1.48;1.38;;;17.80;72.10;;;;;;5054308;28;20488;-91
2021/07/02 05:25:11;;;;;;;1.50;1.40;;;17.90;72.30;;;;;;5049296;28;20029;-90
2021/07/02 05:27:37;;;;;;;1.50;1.38;;;18.00;71.80;;;;;;5036268;28;20049;-85
2021/07/02 05:30:05;;;;;;;1.40;1.30;;;18.00;72.00;;;;;;5046968;28;20055;-85
2021/07/02 05:32:30;;;;;;;1.25;1.15;;;18.00;72.10;;;;;;5051404;28;20067;-87
2021/07/02 05:34:56;;;;;;;1.70;1.23;;;18.10;71.80;;;;;;5033380;28;20029;-94
2021/07/02 05:37:22;;;;;;;1.58;1.45;;;18.20;71.80;;;;;;5041465;28;20566;-94
2021/07/02 05:39:47;;;;;;;1.48;1.38;;;18.20;71.60;;;;;;5043783;28;20028;-93
2021/07/02 05:42:13;;;;;;;1.60;1.50;;;18.20;71.60;;;;;;5059719;28;20024;-91
2021/07/02 05:44:39;;;;;;;1.40;1.30;;;18.30;71.40;;;;;;5037138;28;20844;-91
2021/07/02 05:47:04;;;;;;;1.33;1.23;;;18.30;71.30;;;;;;5035605;28;20028;-92
2021/07/02 05:49:31;;;;;;;1.40;1.30;;;18.30;70.90;;;;;;5041216;28;20037;-93
2021/07/02 05:51:57;;;;;;;1.30;1.20;;;18.30;70.90;;;;;;5049086;28;20026;-91
2021/07/02 05:54:22;;;;;;;1.20;1.10;;;18.30;70.90;;;;;;5058052;28;20463;-90
2021/07/02 05:56:50;;;;;;;1.23;1.13;;;18.40;70.80;;;;;;5036560;28;20048;-91
2021/07/02 05:59:16;;;;;;;1.30;1.20;;;18.50;71.40;;;;;;5036034;28;20108;-88
2021/07/02 06:01:42;;;;;;;1.50;1.40;;;18.40;71.00;;;;;;5035975;28;20080;-88
2021/07/02 06:04:09;;;;;;;1.13;1.02;;;18.40;71.10;;;;;;5051047;28;20046;-88
2021/07/02 06:06:34;;;;;;;1.50;1.40;;;18.20;71.80;;;;;;5034406;28;20028;-85
2021/07/02 06:09:00;;;;;;;1.20;1.10;;;18.30;71.90;;;;;;5037335;28;20531;-86
2021/07/02 06:11:26;;;;;;;1.35;1.25;;;18.30;72.00;;;;;;5045356;28;20032;-88
2021/07/02 06:13:51;;;;;;;1.50;1.20;;;18.40;71.50;;;;;;5053210;28;20032;-87
2021/07/02 06:16:17;;;;;;;1.40;1.30;;;18.50;71.10;;;;;;5060799;28;20490;-88
2021/07/02 06:18:43;;;;;;;1.63;1.40;;;18.50;71.00;;;;;;5070920;28;20040;-88
2021/07/02 06:21:09;;;;;;;1.27;1.17;;;18.60;71.10;;;;;;5052661;28;20040;-89
2021/07/02 06:23:37;;;;;;;1.45;1.35;;;18.60;70.90;;;;;;5052957;28;20028;-88
2021/07/02 06:26:03;;;;;;;1.40;1.30;;;18.80;70.80;;;;;;5049565;28;20028;-88
2021/07/02 06:28:32;;;;;;;1.88;1.35;;;18.80;70.50;;;;;;5055183;28;20025;-88
2021/07/02 06:30:58;;;;;;;1.20;1.10;;;18.90;70.20;;;;;;5041599;28;20030;-88
2021/07/02 06:33:24;;;;;;;1.20;1.10;;;19.00;69.90;;;;;;5034722;28;20086;-88
2021/07/02 06:35:51;;;;;;;1.25;1.10;;;19.10;69.90;;;;;;5038406;28;20025;-89
2021/07/02 06:38:17;;;;;;;1.20;1.10;;;19.20;69.20;;;;;;5059435;28;20623;-88
2021/07/02 06:40:43;;;;;;;1.38;1.17;;;19.30;69.40;;;;;;5050894;28;20029;-89
2021/07/02 06:43:09;;;;;;;1.35;1.20;;;19.30;69.20;;;;;;5045697;28;20061;-89
2021/07/02 06:45:35;;;;;;;1.40;1.30;;;19.20;69.50;;;;;;5047182;28;20021;-88
2021/07/02 06:48:03;;;;;;;2.05;1.20;;;19.30;69.10;;;;;;5048945;28;20072;-86
2021/07/02 06:50:35;;;;;;;1.20;1.10;;;19.50;68.90;;;;;;5036680;28;20017;-87
2021/07/02 06:53:03;;;;;;;1.30;1.20;;;19.60;68.50;;;;;;5045358;28;20039;-88
2021/07/02 06:55:30;;;;;;;1.50;1.17;;;19.70;68.20;;;;;;5068793;28;20029;-87
2021/07/02 06:57:56;;;;;;;1.40;1.30;;;20.00;67.40;;;;;;5048786;28;20056;-86
2021/07/02 07:00:22;;;;;;;1.20;1.10;;;20.30;66.70;;;;;;5045225;28;20029;-87
2021/07/02 07:02:49;;;;;;;1.20;1.10;;;20.40;66.40;;;;;;5045949;28;20488;-88
2021/07/02 07:05:15;;;;;;;1.42;1.23;;;20.50;66.60;;;;;;5044668;28;20036;-88
2021/07/02 07:07:42;;;;;;;1.20;1.08;;;20.60;66.30;;;;;;5047192;28;20043;-90
2021/07/02 07:10:09;;;;;;;0.90;0.80;;;20.60;66.20;;;;;;5048972;28;20080;-88
2021/07/02 07:12:35;;;;;;;1.20;1.10;;;20.60;66.20;;;;;;5047806;28;20056;-88
2021/07/02 07:15:01;;;;;;;1.17;1.08;;;20.80;65.80;;;;;;5045550;28;20033;-87
2021/07/02 07:17:27;;;;;;;1.20;1.10;;;20.80;65.90;;;;;;5048351;28;20024;-87
2021/07/02 07:24:20;;;;;;;1.00;0.90;;;21.40;64.50;;;;;;5113383;27;20413;-86
2021/07/02 07:26:45;;;;;;;1.00;0.90;;;21.40;64.30;;;;;;5112347;28;20061;-91
2021/07/02 07:29:11;;;;;;;1.13;0.95;;;21.40;64.50;;;;;;5096151;28;20020;-89
2021/07/02 07:31:37;;;;;;;0.90;0.80;;;21.50;63.70;;;;;;5103109;28;20019;-89
2021/07/02 07:34:03;;;;;;;1.08;0.90;;;21.80;63.90;;;;;;5102783;28;20508;-89
2021/07/02 07:36:30;;;;;;;1.27;1.00;;;22.60;62.30;;;;;;5102047;28;20020;-92
2021/07/02 07:38:56;;;;;;;0.88;0.70;;;23.60;59.10;;;;;;5101285;28;20111;-89
2021/07/02 07:41:23;;;;;;;0.60;0.50;;;25.70;53.40;;;;;;5099854;28;20052;-88
2021/07/02 07:43:49;;;;;;;0.80;0.60;;;27.20;49.80;;;;;;5094657;28;20431;-86
2021/07/02 07:46:15;;;;;;;0.55;0.40;;;28.80;45.60;;;;;;5099486;28;20016;-85
2021/07/02 07:48:41;;;;;;;0.85;0.50;;;30.20;42.10;;;;;;5110091;28;20024;-85
2021/07/02 07:53:50;;;;;;;0.50;0.40;;;31.90;37.70;;;;;;5098922;28;20035;-83
2021/07/02 07:56:16;;;;;;;0.30;0.30;;;32.50;36.10;;;;;;5105089;28;20043;-86
2021/07/02 07:58:42;;;;;;;0.55;0.35;;;32.20;38.20;;;;;;5072056;28;20059;-85
2021/07/02 08:01:09;;;;;;;0.50;0.30;;;32.40;37.60;;;;;;5072231;28;20071;-86
2021/07/02 08:03:35;;;;;;;0.43;0.30;;;32.20;38.30;;;;;;5071885;28;20234;-85
2021/07/02 08:06:00;;;;;;;0.57;0.40;;;31.90;37.30;;;;;;5072113;28;20411;-85
2021/07/02 08:08:26;;;;;;;0.50;0.30;;;31.10;40.10;;;;;;5089430;28;20032;-85
2021/07/02 08:10:52;;;;;;;0.55;0.40;;;30.80;39.20;;;;;;5092274;28;20040;-85
2021/07/02 08:13:18;;;;;;;0.40;0.30;;;30.60;39.90;;;;;;5090782;28;20032;-85
2021/07/02 08:15:43;;;;;;;0.45;0.28;;;29.90;41.80;;;;;;5091314;28;20032;-85
2021/07/02 08:18:09;;;;;;;0.65;0.40;;;29.30;43.00;;;;;;5072225;28;20021;-85
2021/07/02 08:20:35;;;;;;;0.57;0.40;;;28.70;43.50;;;;;;5071668;28;20027;-88
2021/07/02 08:23:01;;;;;;;0.63;0.40;;;28.60;43.90;;;;;;5071369;28;20076;-87
2021/07/02 08:25:26;;;;;;;0.43;0.30;;;27.80;45.70;;;;;;5084596;28;20088;-88
2021/07/02 08:30:36;;;;;;;0.47;0.32;;;27.80;46.60;;;;;;5090697;28;20035;-85
2021/07/02 08:33:02;;;;;;;0.55;0.40;;;28.60;45.60;;;;;;5086893;28;20502;-84
2021/07/02 08:35:28;;;;;;;0.57;0.40;;;29.10;44.80;;;;;;5058096;28;20040;-84
2021/07/02 08:37:54;;;;;;;0.50;0.40;;;29.10;44.60;;;;;;5056730;28;20025;-85
2021/07/02 08:40:21;;;;;;;0.75;0.40;;;29.10;44.90;;;;;;5057997;28;20021;-85
2021/07/02 08:42:48;;;;;;;0.40;0.30;;;28.80;45.40;;;;;;5061789;28;20087;-85
2021/07/02 08:45:14;;;;;;;0.30;0.20;;;28.30;47.00;;;;;;5076077;28;20025;-85
2021/07/02 08:47:39;;;;;;;0.60;0.40;;;28.50;46.70;;;;;;5057972;28;20036;-85
2021/07/02 08:50:07;;;;;;;0.90;0.40;;;28.60;45.80;;;;;;5057977;28;20510;-88
2021/07/02 08:52:35;;;;;;;0.80;0.40;;;28.30;46.30;;;;;;5063247;28;20565;-88
2021/07/02 08:55:02;;;;;;;0.50;0.40;;;27.30;48.20;;;;;;5068048;28;20610;-88
2021/07/02 08:57:28;;;;;;;0.70;0.47;;;27.00;49.00;;;;;;5071537;28;21087;-85
2021/07/02 08:59:55;;;;;;;0.82;0.40;;;26.80;49.90;;;;;;5075243;28;20024;-92
2021/07/02 09:02:36;;;;;;;1.20;0.50;;;27.30;48.20;;;;;;5058029;28;20104;-89
2021/07/02 09:05:33;;;;;;;0.50;0.45;;;27.90;46.90;;;;;;5057906;28;20028;-90
2021/07/02 09:08:20;;;;;;;0.60;0.43;;;29.00;45.10;;;;;;5055271;28;20056;-89
2021/07/02 09:10:47;;;;;;;0.40;0.30;;;29.80;44.20;;;;;;5055738;28;20055;-89
2021/07/02 09:13:14;;;;;;;0.63;0.47;;;30.30;43.10;;;;;;5057704;28;20029;-87
2021/07/02 09:15:46;;;;;;;0.50;0.40;;;30.20;42.90;;;;;;5057575;28;20402;-86
2021/07/02 09:18:13;;;;;;;0.60;0.40;;;30.10;42.90;;;;;;5057792;28;20021;-88
2021/07/02 09:20:41;;;;;;;0.43;0.38;;;31.00;42.00;;;;;;5057630;28;20075;-87
2021/07/02 09:23:08;;;;;;;0.63;0.30;;;31.80;39.90;;;;;;5057421;28;20411;-87
2021/07/02 09:25:47;;;;;;;0.30;0.30;;;31.90;40.30;;;;;;5057332;28;20029;-86
2021/07/02 09:28:18;;;;;;;0.40;0.30;;;32.30;38.00;;;;;;5057450;28;20029;-88
2021/07/02 09:30:49;;;;;;;0.65;0.40;;;31.80;38.80;;;;;;5061499;28;20466;-89
2021/07/02 09:33:18;;;;;;;0.43;0.40;;;32.30;38.80;;;;;;5074307;28;20028;-86
2021/07/02 09:35:53;;;;;;;0.40;0.40;;;32.90;36.80;;;;;;5060625;28;20376;-87
2021/07/02 09:38:30;;;;;;;0.50;0.30;;;32.90;38.10;;;;;;5076849;28;20021;-87
2021/07/02 09:40:56;;;;;;;0.45;0.30;;;33.10;37.10;;;;;;5073855;28;20498;-86
2021/07/02 09:43:26;;;;;;;0.77;0.60;;;32.40;38.20;;;;;;5090040;27;20194;-87
2021/07/02 09:45:54;;;;;;;0.63;0.30;;;31.30;40.20;;;;;;5069252;28;20037;-88
2021/07/02 09:48:22;;;;;;;0.30;0.30;;;30.90;41.70;;;;;;5076369;28;20565;-89
2021/07/02 09:50:55;;;;;;;0.30;0.30;;;30.90;41.70;;;;;;5075698;28;20082;-87
2021/07/02 09:53:36;;;;;;;0.60;0.40;;;30.70;42.00;;;;;;5085680;28;20039;-87
2021/07/02 09:56:18;;;;;;;0.73;0.43;;;30.90;41.40;;;;;;5069723;28;20063;-88
2021/07/02 09:58:43;;;;;;;0.60;0.40;;;30.80;42.10;;;;;;5056849;28;20028;-88
2021/07/02 10:01:11;;;;;;;0.50;0.30;;;30.80;41.60;;;;;;5055395;28;20025;-87
2021/07/02 10:03:39;;;;;;;0.68;0.50;;;30.30;42.30;;;;;;5064277;28;20033;-88
2021/07/02 10:06:14;;;;;;;0.82;0.50;;;30.60;42.60;;;;;;5056564;28;20086;-87
2021/07/02 10:08:40;;;;;;;0.50;0.40;;;30.80;41.70;;;;;;5056779;28;20032;-88
2021/07/02 10:11:11;;;;;;;0.60;0.38;;;30.50;42.60;;;;;;5069743;28;20028;-88
2021/07/02 10:13:41;;;;;;;0.50;0.40;;;30.10;44.00;;;;;;5076646;28;20518;-88
2021/07/02 10:16:09;;;;;;;0.50;0.38;;;29.60;44.00;;;;;;5076772;28;20025;-88
2021/07/02 10:18:56;;;;;;;1.45;0.50;;;29.40;44.70;;;;;;5071296;28;20580;-90
2021/07/02 10:21:25;;;;;;;0.70;0.50;;;28.70;46.30;;;;;;5055460;28;20017;-90
2021/07/02 10:24:00;;;;;;;0.82;0.60;;;28.10;47.40;;;;;;5056893;28;20045;-91
2021/07/02 10:26:28;;;;;;;0.80;0.60;;;27.30;49.00;;;;;;5056915;28;20112;-90
2021/07/02 10:28:56;;;;;;;0.80;0.60;;;27.20;49.80;;;;;;5057066;28;20482;-90
2021/07/02 10:31:22;;;;;;;0.90;0.70;;;27.00;50.30;;;;;;5056942;28;20044;-92
2021/07/02 10:33:58;;;;;;;0.82;0.60;;;27.00;50.00;;;;;;5056882;28;20478;-90
2021/07/02 10:36:30;;;;;;;0.90;0.73;;;26.70;50.90;;;;;;5056281;28;20076;-90
2021/07/02 10:38:55;;;;;;;0.80;0.60;;;26.80;51.50;;;;;;5071980;28;20025;-90
2021/07/02 10:41:26;;;;;;;0.77;0.68;;;27.00;51.00;;;;;;5056485;28;20036;-91
2021/07/02 10:44:12;;;;;;;0.90;0.75;;;27.50;50.70;;;;;;5069536;28;20036;-90
2021/07/02 10:46:39;;;;;;;1.00;0.77;;;28.00;48.00;;;;;;5076480;28;20382;-89
2021/07/02 10:49:12;;;;;;;0.90;0.57;;;27.80;49.50;;;;;;5076243;28;20485;-90
2021/07/02 10:51:51;;;;;;;0.90;0.70;;;28.00;49.30;;;;;;5065536;28;20021;-90
2021/07/02 10:54:28;;;;;;;1.00;0.80;;;28.10;49.20;;;;;;5058792;28;20082;-88
2021/07/02 10:56:56;;;;;;;0.55;0.50;;;28.50;49.50;;;;;;5075709;28;20048;-90
2021/07/02 10:59:44;;;;;;;1.20;0.80;;;28.90;48.40;;;;;;5075564;28;20042;-90
2021/07/02 11:02:09;;;;;;;0.75;0.65;;;28.80;47.20;;;;;;5058123;28;20036;-90
2021/07/02 11:04:45;;;;;;;0.95;0.77;;;28.50;47.10;;;;;;5053227;28;20021;-91
2021/07/02 11:09:49;;;;;;;0.80;0.60;;;28.30;47.50;;;;;;5076068;28;20028;-94
2021/07/02 11:12:24;;;;;;;0.60;0.40;;;27.90;48.40;;;;;;5076653;28;20077;-93
2021/07/02 11:14:53;;;;;;;0.55;0.45;;;28.10;47.40;;;;;;5069699;28;20506;-91
2021/07/02 11:17:32;;;;;;;0.80;0.50;;;27.80;47.80;;;;;;5089111;28;20033;-91
2021/07/02 11:20:04;;;;;;;0.68;0.40;;;27.70;48.40;;;;;;5074027;28;20052;-92
2021/07/02 11:22:45;;;;;;;0.50;0.40;;;27.30;48.40;;;;;;5074909;28;20045;-92
2021/07/02 11:25:29;;;;;;;0.73;0.50;;;27.00;49.80;;;;;;5075435;28;20375;-93
2021/07/02 11:28:05;;;;;;;0.68;0.40;;;26.70;50.90;;;;;;5103592;28;20032;-94
2021/07/02 11:33:03;;;;;;;0.60;0.30;;;26.40;52.60;;;;;;5076586;28;20099;-91
2021/07/02 11:35:32;;;;;;;0.70;0.50;;;26.50;51.30;;;;;;5068809;28;20037;-92
2021/07/02 11:38:04;;;;;;;0.80;0.50;;;26.60;51.60;;;;;;5076493;28;20100;-93
2021/07/02 11:40:48;;;;;;;0.65;0.40;;;26.50;52.30;;;;;;5109090;28;20028;-91
2021/07/02 11:43:15;;;;;;;0.93;0.43;;;27.00;50.90;;;;;;5074705;28;20410;-89
2021/07/02 11:45:43;;;;;;;1.10;0.60;;;27.30;51.00;;;;;;5075541;28;20031;-90
2021/07/02 11:48:38;;;;;;;0.50;0.40;;;27.50;51.20;;;;;;5076231;28;20089;-86
2021/07/02 11:51:09;;;;;;;0.40;0.30;;;27.70;50.00;;;;;;5074421;28;20025;-90
2021/07/02 11:53:39;;;;;;;0.65;0.40;;;27.50;49.50;;;;;;5083859;28;20038;-91
2021/07/02 11:56:19;;;;;;;0.60;0.50;;;27.20;50.40;;;;;;5056231;28;20104;-91
2021/07/02 11:59:00;;;;;;;0.60;0.40;;;27.10;51.40;;;;;;5054411;28;20025;-91
2021/07/02 12:01:37;;;;;;;0.80;0.40;;;27.10;51.40;;;;;;5056485;28;20025;-90
2021/07/02 12:04:06;;;;;;;0.80;0.50;;;26.60;50.40;;;;;;5054582;28;20029;-91
2021/07/02 12:06:35;;;;;;;0.50;0.40;;;26.80;52.20;;;;;;5055718;28;20025;-89
2021/07/02 12:09:11;;;;;;;0.70;0.50;;;26.80;51.40;;;;;;5055667;28;20112;-89
2021/07/02 12:11:38;;;;;;;0.85;0.60;;;26.90;49.80;;;;;;5058214;28;20053;-89
2021/07/02 12:14:10;;;;;;;1.48;1.10;;;26.80;50.50;;;;;;5059152;28;20028;-93
2021/07/02 12:16:40;;;;;;;0.80;0.50;;;26.90;49.30;;;;;;5059682;28;20387;-90
2021/07/02 12:19:16;;;;;;;0.75;0.50;;;26.60;50.90;;;;;;5059065;28;20074;-91
2021/07/02 12:21:55;;;;;;;0.60;0.30;;;26.30;51.30;;;;;;5058070;28;20027;-90
2021/07/02 12:24:22;;;;;;;;;;;26.30;51.60;;;;;;5059724;28;20043;-89
2021/07/02 12:26:54;;;;;;;0.50;0.30;;;26.20;51.90;;;;;;5091854;28;19950;-90
2021/07/02 12:29:20;;;;;;;0.60;0.40;;;26.40;52.40;;;;;;5057656;28;20037;-91
2021/07/02 12:31:50;;;;;;;1.08;0.85;;;26.50;51.50;;;;;;5070251;28;20036;-89
2021/07/02 12:34:19;;;;;;;0.70;0.50;;;26.40;51.90;;;;;;5057746;28;20037;-90
2021/07/02 12:36:53;;;;;;;1.10;0.80;;;26.50;51.00;;;;;;5090863;28;20079;-90
2021/07/02 12:39:19;;;;;;;0.73;0.35;;;26.40;50.80;;;;;;5059183;28;20032;-90
2021/07/02 12:41:50;;;;;;;0.73;0.47;;;26.20;51.80;;;;;;5074475;28;20021;-87
2021/07/02 12:44:24;;;;;;;0.73;0.40;;;25.90;52.40;;;;;;5078598;28;20020;-91
2021/07/02 12:46:51;;;;;;;0.40;0.30;;;26.10;52.80;;;;;;5078674;28;20031;-90
2021/07/02 12:49:23;;;;;;;0.60;0.38;;;25.80;52.00;;;;;;5073340;28;20036;-90
2021/07/02 12:52:01;;;;;;;0.63;0.40;;;26.30;53.30;;;;;;5058071;28;20044;-89
2021/07/02 12:54:49;;;;;;;0.65;0.40;;;26.40;51.20;;;;;;5095537;28;20028;-88
2021/07/02 12:57:21;;;;;;;0.60;0.40;;;26.40;51.60;;;;;;5098665;28;20099;-89
2021/07/02 12:59:53;;;;;;;0.47;0.35;;;26.60;51.40;;;;;;5097076;28;20119;-87
2021/07/02 13:02:33;;;;;;;0.50;0.40;;;26.70;50.30;;;;;;5071750;28;20020;-90
2021/07/02 13:05:02;;;;;;;0.55;0.40;;;26.80;50.70;;;;;;5058288;28;20033;-90
2021/07/02 13:07:50;;;;;;;0.77;0.40;;;26.70;50.50;;;;;;5058167;28;20035;-90